Bookmark and Share
Track history (hours):
 

Bibo Regio

Last reported at 2014-Apr-24 19:33 UTC. Time now 2014-Apr-24 20:01 UTC.
Position N 47°35' E 007°35'.

Length 32 m.

Type: Ship. MMSI: 269056415.

NotesDate/timePositionNaut miles runAvg speedWind from/ knotsBaromVisibWave heightAir tempDewpointWater temp
2014-Apr-24 19:33N 47°35' E 007°35'0 0.0
2014-Apr-24 18:33N 47°35' E 007°35'0 0.0
2014-Apr-24 17:33N 47°35' E 007°35'0 0.0
2014-Apr-24 16:33N 47°35' E 007°35'0 0.0
2014-Apr-24 15:33N 47°35' E 007°35'0 0.0
2014-Apr-24 14:33N 47°35' E 007°35'0 0.0
2014-Apr-24 13:33N 47°35' E 007°35'0 0.0
2014-Apr-24 12:33N 47°35' E 007°35'0 0.0
2014-Apr-24 11:31N 47°35' E 007°35'1 1.3
2014-Apr-24 10:33N 47°34' E 007°35'5 5.4
2014-Apr-24 09:33N 47°32' E 007°43'1 0.7
2014-Apr-24 08:33N 47°33' E 007°44'4 3.9
2014-Apr-24 07:33N 47°34' E 007°38'2 2.5
2014-Apr-24 06:33N 47°35' E 007°35'0 0.1
2014-Apr-24 05:33N 47°35' E 007°35'0 0.1
2014-Apr-24 04:33N 47°35' E 007°35'0 0.0
2014-Apr-24 03:33N 47°35' E 007°35'0 0.0
2014-Apr-24 02:33N 47°35' E 007°35'0 0.0
2014-Apr-24 01:33N 47°35' E 007°35'0 0.0
2014-Apr-24 00:33N 47°35' E 007°35'0 0.0
2014-Apr-23 23:33N 47°35' E 007°35'0 0.0
2014-Apr-23 22:33N 47°35' E 007°35'0 0.0
2014-Apr-23 21:33N 47°35' E 007°35'0 0.0
2014-Apr-23 20:34N 47°35' E 007°35'0 0.0
2014-Apr-23 19:33N 47°35' E 007°35'0 0.0
2014-Apr-23 18:33N 47°35' E 007°35'0 0.0
2014-Apr-23 17:33N 47°35' E 007°35'0 0.0
2014-Apr-23 16:33N 47°35' E 007°35'0 0.0
2014-Apr-23 15:33N 47°35' E 007°35'0 0.0
2014-Apr-23 14:33N 47°35' E 007°35'0 0.0
2014-Apr-23 13:33N 47°35' E 007°35'0 0.0
2014-Apr-23 12:33N 47°35' E 007°35'0 0.0
2014-Apr-23 11:34N 47°35' E 007°35'0 0.0
2014-Apr-23 10:33N 47°35' E 007°35'0 0.0
2014-Apr-23 09:33N 47°35' E 007°35'0 0.0
2014-Apr-23 08:33N 47°35' E 007°35'1 0.8
2014-Apr-23 07:33N 47°36' E 007°36'1 0.9
2014-Apr-23 06:30N 47°35' E 007°35'0 0.1
2014-Apr-23 05:33N 47°35' E 007°35'0 0.0
2014-Apr-23 04:33N 47°35' E 007°35'0 0.0
2014-Apr-23 03:33N 47°35' E 007°35'0 0.0
2014-Apr-23 02:33N 47°35' E 007°35'0 0.0
2014-Apr-23 01:33N 47°35' E 007°35'0 0.0
2014-Apr-23 00:33N 47°35' E 007°35'0 0.0
2014-Apr-22 23:33N 47°35' E 007°35'0 0.0
2014-Apr-22 22:33N 47°35' E 007°35'0 0.0
2014-Apr-22 21:33N 47°35' E 007°35'0 0.0
2014-Apr-22 20:33N 47°35' E 007°35'0 0.0
2014-Apr-22 19:33N 47°35' E 007°35'0 0.0
2014-Apr-22 18:33N 47°35' E 007°35'0 0.0
2014-Apr-22 17:33N 47°35' E 007°35'0 0.0
2014-Apr-22 16:33N 47°35' E 007°35'0 0.0
2014-Apr-22 15:33N 47°35' E 007°35'0 0.0
2014-Apr-22 14:33N 47°35' E 007°35'0 0.0
2014-Apr-22 13:33N 47°35' E 007°35'0 0.0
2014-Apr-22 12:33N 47°35' E 007°35'0 0.4
2014-Apr-22 11:33N 47°36' E 007°36'0 0.4
2014-Apr-22 10:33N 47°35' E 007°35'0 0.0
2014-Apr-22 09:33N 47°35' E 007°35'0 0.0
2014-Apr-22 08:33N 47°35' E 007°35'0 0.0
2014-Apr-22 07:33N 47°35' E 007°35'0 0.0
2014-Apr-22 06:33N 47°35' E 007°35'0 0.0
2014-Apr-21 16:28N 47°35' E 007°35'0 0.0
2014-Apr-21 15:30N 47°35' E 007°35'0 0.0
2014-Apr-21 14:26N 47°35' E 007°35'0 0.0
2014-Apr-21 09:33N 47°35' E 007°35'0 0.0
2014-Apr-21 02:17N 47°35' E 007°35'0 0.0
2014-Apr-21 01:32N 47°35' E 007°35'0 0.0
2014-Apr-21 00:29N 47°35' E 007°35'0 0.0
2014-Apr-20 18:27N 47°35' E 007°35'0 0.0
2014-Apr-20 17:26N 47°35' E 007°35'0 0.0
2014-Apr-20 16:09N 47°35' E 007°35'0 0.0
2014-Apr-20 15:27N 47°35' E 007°35'0 0.0
2014-Apr-20 14:33N 47°35' E 007°35'0 0.0
2014-Apr-20 13:33N 47°35' E 007°35'0 0.0
2014-Apr-20 12:33N 47°35' E 007°35'0 0.0
2014-Apr-20 11:32N 47°35' E 007°35'0 0.0
2014-Apr-20 10:27N 47°35' E 007°35'0 0.0
2014-Apr-19 16:18N 47°35' E 007°35'0 0.0
2014-Apr-17 18:25N 47°35' E 007°35'0 0.0
2014-Apr-17 17:25N 47°35' E 007°35'0 0.0
2014-Apr-17 15:23N 47°35' E 007°35'0 0.0
2014-Apr-17 14:18N 47°35' E 007°35'0 0.0
2014-Apr-17 13:22N 47°35' E 007°35'0 0.0
2014-Apr-17 12:10N 47°35' E 007°35'0 0.0
2014-Apr-17 11:26N 47°35' E 007°35'1 0.5
2014-Apr-17 09:11N 47°36' E 007°35'1 2.0
2014-Apr-17 08:33N 47°35' E 007°36'0 0.1
2014-Apr-17 06:34N 47°35' E 007°36'0 0.0
2014-Apr-17 05:33N 47°35' E 007°35'0 0.0
2014-Apr-17 04:33N 47°35' E 007°35'0 0.0
2014-Apr-17 03:33N 47°35' E 007°35'0 0.0
2014-Apr-17 02:33N 47°35' E 007°35'0 0.0
2014-Apr-17 01:33N 47°35' E 007°35'0 0.0
2014-Apr-17 00:33N 47°35' E 007°35'0 0.0
2014-Apr-16 23:33N 47°35' E 007°35'0 0.0
2014-Apr-16 22:33N 47°35' E 007°35'0 0.0
2014-Apr-16 21:33N 47°35' E 007°35'0 0.0
2014-Apr-16 20:33N 47°35' E 007°35'0 0.0
2014-Apr-16 19:33N 47°35' E 007°35'0 0.0
2014-Apr-16 18:33N 47°35' E 007°35'0 0.0
2014-Apr-16 17:33N 47°35' E 007°35'0 0.0
2014-Apr-16 16:33N 47°35' E 007°35'0 0.0
2014-Apr-16 15:33N 47°35' E 007°35'0 0.0
2014-Apr-16 14:33N 47°35' E 007°35'0 0.0
2014-Apr-16 13:33N 47°35' E 007°35'0 0.0
2014-Apr-16 12:33N 47°35' E 007°35'0 0.0
2014-Apr-16 11:33N 47°35' E 007°35'0 0.0
2014-Apr-16 10:33N 47°35' E 007°35'0 0.0
2014-Apr-16 09:33N 47°35' E 007°35'1 0.5
2014-Apr-16 08:33N 47°35' E 007°35'1 1.3
2014-Apr-16 07:33N 47°36' E 007°35'1 0.8
2014-Apr-16 06:33N 47°35' E 007°35'0 0.0
2014-Apr-16 05:33N 47°35' E 007°35'0 0.0
2014-Apr-16 04:33N 47°35' E 007°35'0 0.0
2014-Apr-16 03:33N 47°35' E 007°35'0 0.0
2014-Apr-16 02:33N 47°35' E 007°35'0 0.0
2014-Apr-16 01:33N 47°35' E 007°35'0 0.0
2014-Apr-16 00:33N 47°35' E 007°35'0 0.0
2014-Apr-15 23:33N 47°35' E 007°35'0 0.0
2014-Apr-15 22:33N 47°35' E 007°35'0 0.0
2014-Apr-15 21:33N 47°35' E 007°35'0 0.0
2014-Apr-15 20:33N 47°35' E 007°35'0 0.0
2014-Apr-15 19:33N 47°35' E 007°35'0 0.0
2014-Apr-15 18:33N 47°35' E 007°35'0 0.0
2014-Apr-15 17:33N 47°35' E 007°35'0 0.0
2014-Apr-15 16:33N 47°35' E 007°35'0 0.0
2014-Apr-15 15:33N 47°35' E 007°35'0 0.0
2014-Apr-15 14:33N 47°35' E 007°35'0 0.0
2014-Apr-15 12:33N 47°35' E 007°35'0 0.0
2014-Apr-15 11:34N 47°35' E 007°35'0 0.4
2014-Apr-15 10:34N 47°35' E 007°35'0 0.4
2014-Apr-15 09:34N 47°35' E 007°35'0 0.0
2014-Apr-15 08:34N 47°35' E 007°35'0 0.0
2014-Apr-15 07:34N 47°35' E 007°35'1 0.9
2014-Apr-15 06:34N 47°36' E 007°36'1 0.9
2014-Apr-15 05:34N 47°35' E 007°35'0 0.0
2014-Apr-15 03:33N 47°35' E 007°35'0 0.0
2014-Apr-15 02:34N 47°35' E 007°35'0 0.0
2014-Apr-15 01:34N 47°35' E 007°35'0 0.0
2014-Apr-15 00:34N 47°35' E 007°35'0 0.0
2014-Apr-14 23:33N 47°35' E 007°35'0 0.0
2014-Apr-14 22:33N 47°35' E 007°35'0 0.0
2014-Apr-14 21:34N 47°35' E 007°35'0 0.0
2014-Apr-14 20:33N 47°35' E 007°35'0 0.0
2014-Apr-14 19:34N 47°35' E 007°35'  

Dump ship's entire track history

sailing weather and tide predictions

Bibo Regio — HE6415 — position and weather